Pagina principale
METAR-TAF:

METAR-TAF

Aeroporti :

Aeroporto Internazionale del Kuwait

Madinat al-Kuwait, Kuwait

latitudine: 29-13N, longitudine: 047-59E, altezza: 55 m

Osservazione

Il bollettino è stato emesso 55 minuti fa, alle 12:00 UTC
Vento 16 kt da nord/nord-ovest
Temperature 21°C
Umidità 18%
Pressione 1014 hPa
Visibilità: 7000 m
Cielo sereno

METAR: OKBK 201200Z 33016KT 7000 SKC 21/M04 Q1014 NOSIG

Ora: 15:55 (12:55 UTC)

Previsione

Il bollettino è stato emesso 53 minuti fa, alle 12:02 UTC
Previsione valida dal 20 alle 12 UTC al 21 alle 18 UTC
Vento 12 kt da nord/nord-ovest con raffiche fino a 22 kt
Visibilità: 7000 m
Cielo sereno
Temporaneamente
dal 20 alle 12 UTC al 20 alle 16 UTC
Visibilità: 2000 m
Scaccia polvere alto

TAF: OKBK 201202Z 2012/2118 33012G22KT 7000 SKC TEMPO 2012/2016 2000 BLDU

Osservazioni e previsioni meteorologiche di più di 4000 aeroporti (messaggi METAR e TAF).

Le stazioni disponibili sono rappresentate dai dischi gialli e rossi sulla carta.

Puntare il mouse per vedere il nome della stazione.

Clicca sopra per visualizzare le osservazioni e previsioni meteorologiche.

Per cambiare la mappa : fare clic sui pulsanti verdi con una croce nera per ingrandire, il pulsante verde con un trattino per diminuire, o sulla freccia verde per le mappe adiacenti.


METAR-TAF: